createdAt,value
2022-10-10T00:00:11.558Z,102020.05
2022-10-10T00:05:35.274Z,102021.11
2022-10-10T00:10:57.554Z,102023.17
2022-10-10T00:16:20.179Z,102006.23
2022-10-10T00:21:42.508Z,101998.22
2022-10-10T00:27:05.151Z,101990.52
2022-10-10T00:32:27.828Z,101991.39
2022-10-10T00:37:51.468Z,101983.75
2022-10-10T00:43:15.388Z,101978.48
2022-10-10T00:48:48.248Z,101980.95
2022-10-10T00:54:14.704Z,101979.90
2022-10-10T00:59:39.450Z,101974.62
2022-10-10T01:05:02.755Z,101978.29
2022-10-10T01:10:28.195Z,101976.61
2022-10-10T01:15:58.441Z,101968.83
2022-10-10T01:21:36.056Z,101965.47
2022-10-10T01:27:33.955Z,101962.55
2022-10-10T01:33:22.125Z,101961.09
2022-10-10T01:39:10.381Z,101962.18
2022-10-10T01:44:34.751Z,101960.52
2022-10-10T01:50:00.726Z,101951.78
2022-10-10T01:55:57.722Z,101944.50
2022-10-10T02:01:31.185Z,101941.16
2022-10-10T02:07:08.871Z,101952.87
2022-10-10T02:12:33.522Z,101942.08
2022-10-10T02:17:59.118Z,101939.52
2022-10-10T02:23:23.885Z,101938.55
2022-10-10T02:29:02.900Z,101933.33
2022-10-10T02:34:36.052Z,101927.46
2022-10-10T02:40:03.225Z,101916.98
2022-10-10T02:45:28.594Z,101915.33
2022-10-10T02:50:51.181Z,101917.32
2022-10-10T02:56:13.450Z,101915.13
2022-10-10T03:01:35.948Z,101908.63
2022-10-10T03:06:58.060Z,101906.14
2022-10-10T03:12:20.647Z,101906.30
2022-10-10T03:17:43.364Z,101901.05
2022-10-10T03:23:06.044Z,101899.46
2022-10-10T03:28:28.953Z,101902.11
2022-10-10T03:33:51.242Z,101902.83
2022-10-10T03:39:13.868Z,101886.08
2022-10-10T03:44:36.084Z,101888.86
2022-10-10T03:49:58.714Z,101892.38
2022-10-10T03:55:21.425Z,101881.73
2022-10-10T04:00:44.195Z,101887.98
2022-10-10T04:06:06.398Z,101887.95
2022-10-10T04:11:28.618Z,101870.37
2022-10-10T04:16:50.824Z,101871.38
2022-10-10T04:22:12.977Z,101872.28
2022-10-10T04:27:35.114Z,101865.95
2022-10-10T04:32:57.714Z,101867.90
2022-10-10T04:38:21.576Z,101872.37
2022-10-10T04:43:44.233Z,101866.23
2022-10-10T04:49:06.802Z,101861.80
2022-10-10T04:54:28.948Z,101858.28
2022-10-10T04:59:51.255Z,101854.60
2022-10-10T05:05:13.930Z,101857.95
2022-10-10T05:10:38.665Z,101844.78
2022-10-10T05:16:02.637Z,101843.08
2022-10-10T05:21:24.919Z,101838.73
2022-10-10T05:26:47.053Z,101840.31
2022-10-10T05:32:10.640Z,101832.27
2022-10-10T05:37:33.433Z,101833.84
2022-10-10T05:42:55.593Z,101835.56
2022-10-10T05:48:19.011Z,101835.36
2022-10-10T05:53:42.661Z,101822.83
2022-10-10T05:59:04.851Z,101825.34
2022-10-10T06:04:27.050Z,101813.59
2022-10-10T06:09:49.408Z,101816.70
2022-10-10T06:15:11.890Z,101800.29
2022-10-10T06:20:34.130Z,101807.96
2022-10-10T06:25:58.664Z,101806.77
2022-10-10T06:31:23.916Z,101811.69
2022-10-10T06:36:46.570Z,101823.63
2022-10-10T06:42:08.828Z,101815.23
2022-10-10T06:47:31.550Z,101812.14
2022-10-10T06:52:54.178Z,101808.18
2022-10-10T06:58:16.416Z,101809.58
2022-10-10T07:03:39.684Z,101815.13
2022-10-10T07:09:02.775Z,101811.99
2022-10-10T07:14:25.196Z,101799.14
2022-10-10T07:19:49.120Z,101793.14
2022-10-10T07:25:12.104Z,101787.24
2022-10-10T07:30:34.600Z,101787.46
2022-10-10T07:36:00.976Z,101774.00
2022-10-10T07:41:31.393Z,101767.18
2022-10-10T07:46:54.047Z,101764.42
2022-10-10T07:52:18.205Z,101765.33
2022-10-10T07:57:41.674Z,101755.45
2022-10-10T08:03:06.435Z,101749.79
2022-10-10T08:08:29.280Z,101739.98
2022-10-10T08:13:52.429Z,101737.38
2022-10-10T08:24:36.782Z,101708.14
2022-10-10T08:29:59.020Z,101705.23
2022-10-10T08:35:21.285Z,101697.13
2022-10-10T08:40:55.359Z,101684.87
2022-10-10T08:46:24.983Z,101678.81
2022-10-10T08:51:49.138Z,101677.39
2022-10-10T08:57:16.459Z,101663.61
2022-10-10T09:02:59.436Z,101652.78
2022-10-10T09:08:35.552Z,101643.66
2022-10-10T09:14:30.397Z,101640.13
2022-10-10T09:20:22.485Z,101635.30
2022-10-10T09:26:11.104Z,101632.59
2022-10-10T09:31:49.738Z,101627.27
2022-10-10T09:37:35.350Z,101625.34
2022-10-10T09:42:48.338Z,101614.60
2022-10-10T09:48:12.161Z,101604.94
2022-10-10T09:53:35.746Z,101603.64
2022-10-10T09:59:03.771Z,101597.02
2022-10-10T10:04:31.924Z,101599.36
2022-10-10T10:09:57.312Z,101586.41
2022-10-10T10:15:36.140Z,101580.23
2022-10-10T10:21:03.987Z,101574.59
2022-10-10T10:26:31.112Z,101565.64
2022-10-10T10:32:12.409Z,101545.44
2022-10-10T10:38:00.948Z,101536.86
2022-10-10T10:43:43.056Z,101521.08
2022-10-10T10:49:10.602Z,101515.58
2022-10-10T10:55:04.016Z,101508.94
2022-10-10T11:01:23.827Z,101500.08
2022-10-10T11:06:32.587Z,101488.03
2022-10-10T11:12:24.122Z,101485.44
2022-10-10T11:18:03.497Z,101481.34
2022-10-10T11:23:39.788Z,101464.84
2022-10-10T11:29:12.998Z,101470.55
2022-10-10T11:34:55.349Z,101455.41
2022-10-10T11:46:03.747Z,101430.14
2022-10-10T11:51:33.289Z,101422.80
2022-10-10T11:56:58.679Z,101404.38
2022-10-10T12:02:31.144Z,101395.81
2022-10-10T12:08:06.742Z,101390.84
2022-10-10T12:13:42.139Z,101385.61
2022-10-10T12:19:11.815Z,101383.42
2022-10-10T12:24:42.562Z,101368.38
2022-10-10T12:30:16.468Z,101349.77
2022-10-10T12:35:49.166Z,101349.13
2022-10-10T12:41:27.846Z,101329.97
2022-10-10T12:46:51.057Z,101328.31
2022-10-10T12:52:31.481Z,101314.11
2022-10-10T12:58:06.625Z,101306.00
2022-10-10T13:03:41.782Z,101299.45
2022-10-10T13:09:31.042Z,101294.48
2022-10-10T13:15:03.257Z,101292.86
2022-10-10T13:26:10.511Z,101262.88
2022-10-10T13:31:33.398Z,101254.87
2022-10-10T13:36:56.003Z,101258.68
2022-10-10T13:42:30.080Z,101253.01
2022-10-10T13:48:09.954Z,101252.56
2022-10-10T13:53:45.309Z,101240.05
2022-10-10T13:59:17.781Z,101244.02
2022-10-10T14:04:53.019Z,101237.02
2022-10-10T14:10:32.281Z,101225.21
2022-10-10T14:16:02.081Z,101220.30
2022-10-10T14:21:26.070Z,101210.44
2022-10-10T14:26:49.182Z,101203.70
2022-10-10T14:32:11.384Z,101198.23
2022-10-10T14:37:41.955Z,101195.25
2022-10-10T14:43:04.149Z,101198.05
2022-10-10T14:48:26.485Z,101188.31
2022-10-10T14:54:11.924Z,101180.39
2022-10-10T14:59:13.014Z,101170.70
2022-10-10T15:04:35.238Z,101165.56
2022-10-10T15:15:24.402Z,101169.58
2022-10-10T15:20:47.319Z,101160.68
2022-10-10T15:26:11.704Z,101158.89
2022-10-10T15:31:41.355Z,101159.91
2022-10-10T15:37:04.458Z,101146.59
2022-10-10T15:42:27.822Z,101150.33
2022-10-10T15:47:52.838Z,101146.55
2022-10-10T15:53:15.038Z,101138.26
2022-10-10T15:58:37.168Z,101125.52
2022-10-10T16:04:00.974Z,101132.02
2022-10-10T16:09:28.470Z,101142.11
2022-10-10T16:14:48.133Z,101140.28
2022-10-10T16:20:10.472Z,101135.62
2022-10-10T16:25:33.061Z,101128.86
2022-10-10T16:30:55.202Z,101129.23
2022-10-10T16:36:23.101Z,101128.52
2022-10-10T16:41:48.328Z,101116.73
2022-10-10T16:47:11.231Z,101121.15
2022-10-10T16:52:35.032Z,101119.91
2022-10-10T16:57:59.490Z,101118.07
2022-10-10T17:03:22.490Z,101120.77
2022-10-10T17:08:45.758Z,101116.10
2022-10-10T17:14:08.774Z,101116.36
2022-10-10T17:19:31.216Z,101111.09
2022-10-10T17:24:53.433Z,101113.53
2022-10-10T17:30:16.941Z,101110.61
2022-10-10T17:35:39.204Z,101109.50
2022-10-10T17:41:04.292Z,101109.62
2022-10-10T17:46:36.552Z,101098.46
2022-10-10T17:52:00.143Z,101090.37
2022-10-10T17:57:22.447Z,101092.21
2022-10-10T18:02:45.281Z,101087.07
2022-10-10T18:08:09.904Z,101080.91
2022-10-10T18:13:32.213Z,101070.00
2022-10-10T18:18:56.649Z,101064.73
2022-10-10T18:24:20.407Z,101064.61
2022-10-10T18:29:42.687Z,101062.30
2022-10-10T18:35:04.832Z,101047.58
2022-10-10T18:40:28.002Z,101040.59
2022-10-10T18:45:50.796Z,101045.73
2022-10-10T18:51:19.973Z,101043.55
2022-10-10T18:56:44.740Z,101036.27
2022-10-10T19:02:07.152Z,101026.00
2022-10-10T19:07:29.290Z,101029.89
2022-10-10T19:12:51.801Z,101028.98
2022-10-10T19:18:14.148Z,101027.86
2022-10-10T19:23:36.855Z,101021.26
2022-10-10T19:29:03.093Z,101011.53
2022-10-10T19:34:23.766Z,101004.80
2022-10-10T19:39:46.429Z,101011.73
2022-10-10T19:45:08.641Z,100999.47
2022-10-10T19:50:31.288Z,101004.94
2022-10-10T19:56:04.517Z,101001.62
2022-10-10T20:01:30.597Z,101005.01
2022-10-10T20:06:54.275Z,101004.89
2022-10-10T20:12:16.493Z,101009.70
2022-10-10T20:17:40.193Z,101010.84
2022-10-10T20:23:02.382Z,101005.78
2022-10-10T20:28:26.728Z,101006.14
2022-10-10T20:33:49.492Z,101006.37
2022-10-10T20:39:18.463Z,101003.04
2022-10-10T20:44:40.623Z,101001.14
2022-10-10T20:50:03.261Z,101007.85
2022-10-10T20:55:25.898Z,100999.43
2022-10-10T21:00:48.130Z,100997.28
2022-10-10T21:06:29.888Z,100999.31
2022-10-10T21:11:55.036Z,100999.87
2022-10-10T21:17:17.698Z,100999.69
2022-10-10T21:22:40.386Z,100995.76
2022-10-10T21:28:02.963Z,100995.64
2022-10-10T21:33:25.248Z,100994.39
2022-10-10T21:38:49.367Z,101007.94
2022-10-10T21:44:12.872Z,101004.91
2022-10-10T21:49:35.012Z,101005.98
2022-10-10T21:54:57.146Z,101013.20
2022-10-10T22:00:21.001Z,101001.80
2022-10-10T22:05:45.114Z,101003.70
2022-10-10T22:11:10.325Z,101009.78
2022-10-10T22:16:32.574Z,101011.34
2022-10-10T22:21:54.723Z,101013.58
2022-10-10T22:27:16.854Z,101010.80
2022-10-10T22:32:39.654Z,101010.50
2022-10-10T22:38:01.817Z,101010.04
2022-10-10T22:43:27.015Z,100999.72
2022-10-10T22:48:48.643Z,100994.66
2022-10-10T22:54:10.818Z,100991.89
2022-10-10T22:59:33.894Z,100992.05
2022-10-10T23:04:56.457Z,100993.11
2022-10-10T23:10:19.331Z,100997.80
2022-10-10T23:15:41.484Z,100987.66
2022-10-10T23:21:04.336Z,100990.23
2022-10-10T23:26:27.340Z,100996.65
2022-10-10T23:31:50.823Z,100992.81
2022-10-10T23:37:13.508Z,100990.70
2022-10-10T23:42:35.691Z,101001.39
2022-10-10T23:47:58.308Z,101002.91
2022-10-10T23:53:20.635Z,100996.44
2022-10-10T23:58:42.792Z,100994.62
